sensor_id;sensor_type;location;lat;lon;timestamp;P1;durP1;ratioP1;P2;durP2;ratioP2
52738;SDS011;52466;40.122;18.318;2022-09-03T00:01:00;116.63;;;57.50;;
52738;SDS011;52466;40.122;18.318;2022-09-03T00:07:53;117.10;;;57.85;;
52738;SDS011;52466;40.122;18.318;2022-09-03T00:15:13;116.32;;;57.70;;
52738;SDS011;52466;40.122;18.318;2022-09-03T00:18:26;117.68;;;57.50;;
52738;SDS011;52466;40.122;18.318;2022-09-03T00:24:55;118.55;;;57.28;;
52738;SDS011;52466;40.122;18.318;2022-09-03T00:28:14;116.53;;;57.20;;
52738;SDS011;52466;40.122;18.318;2022-09-03T00:31:28;119.35;;;57.47;;
52738;SDS011;52466;40.122;18.318;2022-09-03T00:34:46;116.55;;;57.63;;
52738;SDS011;52466;40.122;18.318;2022-09-03T00:37:59;114.90;;;57.25;;
52738;SDS011;52466;40.122;18.318;2022-09-03T00:41:17;117.68;;;57.88;;
52738;SDS011;52466;40.122;18.318;2022-09-03T00:51:33;114.30;;;57.27;;
52738;SDS011;52466;40.122;18.318;2022-09-03T01:12:51;115.35;;;56.90;;
52738;SDS011;52466;40.122;18.318;2022-09-03T01:19:42;117.88;;;57.35;;
52738;SDS011;52466;40.122;18.318;2022-09-03T01:23:03;118.93;;;57.60;;
52738;SDS011;52466;40.122;18.318;2022-09-03T01:29:48;115.65;;;56.80;;
52738;SDS011;52466;40.122;18.318;2022-09-03T01:43:35;118.95;;;57.47;;
52738;SDS011;52466;40.122;18.318;2022-09-03T01:46:48;113.60;;;56.90;;
52738;SDS011;52466;40.122;18.318;2022-09-03T02:00:28;116.82;;;57.22;;
52738;SDS011;52466;40.122;18.318;2022-09-03T02:03:39;114.55;;;57.15;;
52738;SDS011;52466;40.122;18.318;2022-09-03T02:06:51;121.22;;;57.35;;
52738;SDS011;52466;40.122;18.318;2022-09-03T02:10:01;116.82;;;57.05;;
52738;SDS011;52466;40.122;18.318;2022-09-03T02:13:19;113.43;;;56.85;;
52738;SDS011;52466;40.122;18.318;2022-09-03T02:16:32;116.57;;;57.28;;
52738;SDS011;52466;40.122;18.318;2022-09-03T02:19:41;112.78;;;57.03;;
52738;SDS011;52466;40.122;18.318;2022-09-03T02:22:49;114.78;;;56.92;;
52738;SDS011;52466;40.122;18.318;2022-09-03T02:25:59;114.78;;;57.08;;
52738;SDS011;52466;40.122;18.318;2022-09-03T02:29:09;113.97;;;56.97;;
52738;SDS011;52466;40.122;18.318;2022-09-03T02:32:18;114.72;;;57.00;;
52738;SDS011;52466;40.122;18.318;2022-09-03T02:35:26;118.18;;;57.35;;
52738;SDS011;52466;40.122;18.318;2022-09-03T02:38:34;116.45;;;57.20;;
52738;SDS011;52466;40.122;18.318;2022-09-03T02:41:42;114.80;;;57.28;;
52738;SDS011;52466;40.122;18.318;2022-09-03T02:44:51;113.70;;;57.05;;
52738;SDS011;52466;40.122;18.318;2022-09-03T02:48:05;115.38;;;57.17;;
52738;SDS011;52466;40.122;18.318;2022-09-03T02:51:16;114.75;;;57.33;;
52738;SDS011;52466;40.122;18.318;2022-09-03T02:54:23;117.35;;;57.30;;
52738;SDS011;52466;40.122;18.318;2022-09-03T02:57:31;113.28;;;57.05;;
52738;SDS011;52466;40.122;18.318;2022-09-03T03:00:39;113.13;;;56.90;;
52738;SDS011;52466;40.122;18.318;2022-09-03T03:03:46;115.18;;;57.10;;
52738;SDS011;52466;40.122;18.318;2022-09-03T03:06:54;114.97;;;57.42;;
52738;SDS011;52466;40.122;18.318;2022-09-03T03:10:02;112.50;;;57.15;;
52738;SDS011;52466;40.122;18.318;2022-09-03T03:13:10;114.65;;;57.47;;
52738;SDS011;52466;40.122;18.318;2022-09-03T03:16:18;114.10;;;57.25;;
52738;SDS011;52466;40.122;18.318;2022-09-03T03:19:26;113.47;;;56.92;;
52738;SDS011;52466;40.122;18.318;2022-09-03T03:22:35;116.30;;;57.25;;
52738;SDS011;52466;40.122;18.318;2022-09-03T03:25:42;115.30;;;57.63;;
52738;SDS011;52466;40.122;18.318;2022-09-03T03:28:54;113.95;;;57.28;;
52738;SDS011;52466;40.122;18.318;2022-09-03T03:32:03;115.78;;;57.40;;
52738;SDS011;52466;40.122;18.318;2022-09-03T03:35:11;115.15;;;57.28;;
52738;SDS011;52466;40.122;18.318;2022-09-03T03:38:19;113.88;;;57.00;;
52738;SDS011;52466;40.122;18.318;2022-09-03T03:41:28;114.68;;;57.38;;
52738;SDS011;52466;40.122;18.318;2022-09-03T03:44:37;112.93;;;57.10;;
52738;SDS011;52466;40.122;18.318;2022-09-03T03:47:45;112.95;;;57.20;;
52738;SDS011;52466;40.122;18.318;2022-09-03T03:50:53;115.18;;;57.67;;
52738;SDS011;52466;40.122;18.318;2022-09-03T03:54:01;114.45;;;57.17;;
52738;SDS011;52466;40.122;18.318;2022-09-03T03:57:08;116.35;;;57.47;;
52738;SDS011;52466;40.122;18.318;2022-09-03T04:00:16;114.35;;;57.30;;
52738;SDS011;52466;40.122;18.318;2022-09-03T04:03:24;116.53;;;57.97;;
52738;SDS011;52466;40.122;18.318;2022-09-03T04:06:31;115.70;;;57.63;;
52738;SDS011;52466;40.122;18.318;2022-09-03T04:09:39;118.03;;;57.80;;
52738;SDS011;52466;40.122;18.318;2022-09-03T04:12:47;113.85;;;57.38;;
52738;SDS011;52466;40.122;18.318;2022-09-03T04:16:01;114.53;;;57.13;;
52738;SDS011;52466;40.122;18.318;2022-09-03T04:19:11;116.70;;;57.85;;
52738;SDS011;52466;40.122;18.318;2022-09-03T04:22:19;116.32;;;58.10;;
52738;SDS011;52466;40.122;18.318;2022-09-03T04:25:26;116.00;;;57.45;;
52738;SDS011;52466;40.122;18.318;2022-09-03T04:28:34;117.10;;;57.38;;
52738;SDS011;52466;40.122;18.318;2022-09-03T04:31:43;116.40;;;57.92;;
52738;SDS011;52466;40.122;18.318;2022-09-03T04:35:10;114.90;;;58.13;;
52738;SDS011;52466;40.122;18.318;2022-09-03T04:38:18;118.63;;;57.60;;
52738;SDS011;52466;40.122;18.318;2022-09-03T04:41:26;115.03;;;57.53;;
52738;SDS011;52466;40.122;18.318;2022-09-03T04:44:36;118.22;;;57.75;;
52738;SDS011;52466;40.122;18.318;2022-09-03T04:47:54;114.93;;;57.53;;
52738;SDS011;52466;40.122;18.318;2022-09-03T04:51:06;115.18;;;57.30;;
52738;SDS011;52466;40.122;18.318;2022-09-03T04:54:15;114.50;;;57.80;;
52738;SDS011;52466;40.122;18.318;2022-09-03T04:57:23;117.70;;;58.03;;
52738;SDS011;52466;40.122;18.318;2022-09-03T05:00:31;114.90;;;58.47;;
52738;SDS011;52466;40.122;18.318;2022-09-03T05:03:38;116.28;;;58.17;;
52738;SDS011;52466;40.122;18.318;2022-09-03T05:06:46;113.65;;;57.50;;
52738;SDS011;52466;40.122;18.318;2022-09-03T05:09:54;115.68;;;58.25;;
52738;SDS011;52466;40.122;18.318;2022-09-03T05:13:03;116.70;;;58.00;;
52738;SDS011;52466;40.122;18.318;2022-09-03T05:16:11;116.03;;;57.70;;
52738;SDS011;52466;40.122;18.318;2022-09-03T05:19:19;116.75;;;58.42;;
52738;SDS011;52466;40.122;18.318;2022-09-03T05:22:27;123.88;;;61.92;;
52738;SDS011;52466;40.122;18.318;2022-09-03T05:25:35;124.88;;;62.58;;
52738;SDS011;52466;40.122;18.318;2022-09-03T05:28:44;123.32;;;62.60;;
52738;SDS011;52466;40.122;18.318;2022-09-03T05:31:52;119.65;;;62.83;;
52738;SDS011;52466;40.122;18.318;2022-09-03T05:35:00;127.07;;;64.97;;
52738;SDS011;52466;40.122;18.318;2022-09-03T05:38:08;119.90;;;64.22;;
52738;SDS011;52466;40.122;18.318;2022-09-03T05:41:16;122.20;;;64.18;;
52738;SDS011;52466;40.122;18.318;2022-09-03T05:44:24;121.32;;;65.35;;
52738;SDS011;52466;40.122;18.318;2022-09-03T05:47:32;121.03;;;64.57;;
52738;SDS011;52466;40.122;18.318;2022-09-03T05:50:40;119.15;;;64.35;;
52738;SDS011;52466;40.122;18.318;2022-09-03T05:53:47;122.43;;;65.45;;
52738;SDS011;52466;40.122;18.318;2022-09-03T05:56:55;122.05;;;67.60;;
52738;SDS011;52466;40.122;18.318;2022-09-03T06:00:03;125.70;;;70.70;;
52738;SDS011;52466;40.122;18.318;2022-09-03T06:03:12;126.53;;;71.50;;
52738;SDS011;52466;40.122;18.318;2022-09-03T06:06:20;126.70;;;69.93;;
52738;SDS011;52466;40.122;18.318;2022-09-03T06:09:31;125.17;;;69.67;;
52738;SDS011;52466;40.122;18.318;2022-09-03T06:12:39;121.72;;;67.45;;
52738;SDS011;52466;40.122;18.318;2022-09-03T06:15:46;117.47;;;66.93;;
52738;SDS011;52466;40.122;18.318;2022-09-03T06:18:54;116.13;;;65.63;;
52738;SDS011;52466;40.122;18.318;2022-09-03T06:22:02;117.93;;;65.47;;
52738;SDS011;52466;40.122;18.318;2022-09-03T06:25:10;119.88;;;66.05;;
52738;SDS011;52466;40.122;18.318;2022-09-03T06:28:18;118.90;;;66.18;;
52738;SDS011;52466;40.122;18.318;2022-09-03T06:31:26;117.15;;;66.25;;
52738;SDS011;52466;40.122;18.318;2022-09-03T06:34:34;120.25;;;66.28;;
52738;SDS011;52466;40.122;18.318;2022-09-03T06:37:42;117.57;;;66.38;;
52738;SDS011;52466;40.122;18.318;2022-09-03T06:40:53;117.60;;;66.15;;
52738;SDS011;52466;40.122;18.318;2022-09-03T06:44:06;120.43;;;65.88;;
52738;SDS011;52466;40.122;18.318;2022-09-03T06:47:17;118.32;;;66.00;;
52738;SDS011;52466;40.122;18.318;2022-09-03T06:50:25;119.93;;;65.45;;
52738;SDS011;52466;40.122;18.318;2022-09-03T06:53:34;122.85;;;66.03;;
52738;SDS011;52466;40.122;18.318;2022-09-03T06:56:52;126.05;;;65.43;;
52738;SDS011;52466;40.122;18.318;2022-09-03T07:00:00;120.75;;;64.93;;
52738;SDS011;52466;40.122;18.318;2022-09-03T07:03:09;119.00;;;63.75;;
52738;SDS011;52466;40.122;18.318;2022-09-03T07:06:18;123.25;;;63.80;;
52738;SDS011;52466;40.122;18.318;2022-09-03T07:09:25;119.43;;;63.65;;
52738;SDS011;52466;40.122;18.318;2022-09-03T07:12:33;120.70;;;63.35;;
52738;SDS011;52466;40.122;18.318;2022-09-03T07:15:42;119.90;;;63.25;;
52738;SDS011;52466;40.122;18.318;2022-09-03T07:18:50;122.65;;;63.42;;
52738;SDS011;52466;40.122;18.318;2022-09-03T07:21:58;122.10;;;62.53;;
52738;SDS011;52466;40.122;18.318;2022-09-03T07:25:07;123.20;;;64.93;;
52738;SDS011;52466;40.122;18.318;2022-09-03T07:28:15;126.78;;;64.97;;
52738;SDS011;52466;40.122;18.318;2022-09-03T07:31:24;119.57;;;62.55;;
52738;SDS011;52466;40.122;18.318;2022-09-03T07:34:33;118.18;;;62.30;;
52738;SDS011;52466;40.122;18.318;2022-09-03T07:37:41;121.68;;;61.95;;
52738;SDS011;52466;40.122;18.318;2022-09-03T07:40:56;119.55;;;62.47;;
52738;SDS011;52466;40.122;18.318;2022-09-03T07:44:07;122.82;;;62.63;;
52738;SDS011;52466;40.122;18.318;2022-09-03T07:47:15;118.97;;;62.10;;
52738;SDS011;52466;40.122;18.318;2022-09-03T07:50:24;117.30;;;62.03;;
52738;SDS011;52466;40.122;18.318;2022-09-03T07:53:32;117.60;;;61.80;;
52738;SDS011;52466;40.122;18.318;2022-09-03T07:56:40;118.25;;;61.67;;
52738;SDS011;52466;40.122;18.318;2022-09-03T07:59:48;116.28;;;61.80;;
52738;SDS011;52466;40.122;18.318;2022-09-03T08:02:56;116.57;;;61.60;;
52738;SDS011;52466;40.122;18.318;2022-09-03T08:06:06;115.47;;;61.65;;
52738;SDS011;52466;40.122;18.318;2022-09-03T08:09:14;117.22;;;61.65;;
52738;SDS011;52466;40.122;18.318;2022-09-03T08:12:22;115.97;;;61.60;;
52738;SDS011;52466;40.122;18.318;2022-09-03T08:15:30;117.00;;;61.50;;
52738;SDS011;52466;40.122;18.318;2022-09-03T08:18:39;115.55;;;61.47;;
52738;SDS011;52466;40.122;18.318;2022-09-03T08:21:46;117.88;;;61.90;;
52738;SDS011;52466;40.122;18.318;2022-09-03T08:24:54;118.88;;;61.55;;
52738;SDS011;52466;40.122;18.318;2022-09-03T08:28:02;116.38;;;61.17;;
52738;SDS011;52466;40.122;18.318;2022-09-03T08:34:25;114.95;;;61.45;;
52738;SDS011;52466;40.122;18.318;2022-09-03T08:37:33;116.35;;;61.50;;
52738;SDS011;52466;40.122;18.318;2022-09-03T08:40:40;115.70;;;61.15;;
52738;SDS011;52466;40.122;18.318;2022-09-03T08:47:50;115.20;;;61.13;;
52738;SDS011;52466;40.122;18.318;2022-09-03T08:50:55;114.30;;;60.92;;
52738;SDS011;52466;40.122;18.318;2022-09-03T08:54:08;115.88;;;61.45;;
52738;SDS011;52466;40.122;18.318;2022-09-03T08:57:18;113.85;;;61.00;;
52738;SDS011;52466;40.122;18.318;2022-09-03T09:00:28;112.82;;;60.88;;
52738;SDS011;52466;40.122;18.318;2022-09-03T09:04:14;113.45;;;60.97;;
52738;SDS011;52466;40.122;18.318;2022-09-03T09:10:46;117.95;;;61.08;;
52738;SDS011;52466;40.122;18.318;2022-09-03T09:14:07;113.10;;;60.85;;
52738;SDS011;52466;40.122;18.318;2022-09-03T09:24:01;113.07;;;60.60;;
52738;SDS011;52466;40.122;18.318;2022-09-03T09:27:14;115.63;;;60.50;;
52738;SDS011;52466;40.122;18.318;2022-09-03T09:30:23;113.40;;;61.15;;
52738;SDS011;52466;40.122;18.318;2022-09-03T09:33:31;116.38;;;60.53;;
52738;SDS011;52466;40.122;18.318;2022-09-03T09:37:14;112.93;;;60.65;;
52738;SDS011;52466;40.122;18.318;2022-09-03T09:40:26;112.65;;;60.42;;
52738;SDS011;52466;40.122;18.318;2022-09-03T09:43:40;113.50;;;60.28;;
52738;SDS011;52466;40.122;18.318;2022-09-03T09:46:48;111.60;;;60.40;;
52738;SDS011;52466;40.122;18.318;2022-09-03T09:49:58;111.85;;;60.25;;
52738;SDS011;52466;40.122;18.318;2022-09-03T09:53:09;112.88;;;60.50;;
52738;SDS011;52466;40.122;18.318;2022-09-03T09:56:21;111.07;;;59.97;;
52738;SDS011;52466;40.122;18.318;2022-09-03T09:59:30;111.70;;;60.13;;
52738;SDS011;52466;40.122;18.318;2022-09-03T10:02:46;112.35;;;60.40;;
52738;SDS011;52466;40.122;18.318;2022-09-03T10:06:05;112.53;;;60.33;;
52738;SDS011;52466;40.122;18.318;2022-09-03T10:09:33;113.78;;;60.50;;
52738;SDS011;52466;40.122;18.318;2022-09-03T10:12:41;113.03;;;60.38;;
52738;SDS011;52466;40.122;18.318;2022-09-03T10:16:19;112.43;;;60.72;;
52738;SDS011;52466;40.122;18.318;2022-09-03T10:19:40;111.80;;;60.75;;
52738;SDS011;52466;40.122;18.318;2022-09-03T10:23:26;112.70;;;60.53;;
52738;SDS011;52466;40.122;18.318;2022-09-03T10:26:35;111.78;;;60.55;;
52738;SDS011;52466;40.122;18.318;2022-09-03T10:29:43;113.55;;;60.95;;
52738;SDS011;52466;40.122;18.318;2022-09-03T10:33:12;115.40;;;60.92;;
52738;SDS011;52466;40.122;18.318;2022-09-03T11:08:22;111.03;;;60.45;;
52738;SDS011;52466;40.122;18.318;2022-09-03T11:11:44;113.13;;;60.80;;
52738;SDS011;52466;40.122;18.318;2022-09-03T11:15:04;111.93;;;60.78;;
52738;SDS011;52466;40.122;18.318;2022-09-03T11:21:37;112.10;;;60.40;;
52738;SDS011;52466;40.122;18.318;2022-09-03T11:24:54;112.47;;;61.28;;
52738;SDS011;52466;40.122;18.318;2022-09-03T11:35:56;111.50;;;60.05;;
52738;SDS011;52466;40.122;18.318;2022-09-03T11:43:42;110.38;;;60.10;;
52738;SDS011;52466;40.122;18.318;2022-09-03T11:47:36;110.30;;;60.28;;
52738;SDS011;52466;40.122;18.318;2022-09-03T11:50:53;111.05;;;60.25;;
52738;SDS011;52466;40.122;18.318;2022-09-03T11:54:05;112.07;;;60.50;;
52738;SDS011;52466;40.122;18.318;2022-09-03T11:57:31;112.25;;;60.15;;
52738;SDS011;52466;40.122;18.318;2022-09-03T12:00:46;110.35;;;60.08;;
52738;SDS011;52466;40.122;18.318;2022-09-03T12:03:57;110.07;;;60.22;;
52738;SDS011;52466;40.122;18.318;2022-09-03T12:10:27;112.43;;;60.58;;
52738;SDS011;52466;40.122;18.318;2022-09-03T12:20:29;111.90;;;60.45;;
52738;SDS011;52466;40.122;18.318;2022-09-03T12:26:48;111.40;;;60.50;;
52738;SDS011;52466;40.122;18.318;2022-09-03T12:29:59;111.22;;;60.50;;
52738;SDS011;52466;40.122;18.318;2022-09-03T12:33:08;111.47;;;60.65;;
52738;SDS011;52466;40.122;18.318;2022-09-03T12:36:20;112.13;;;60.83;;
52738;SDS011;52466;40.122;18.318;2022-09-03T12:39:28;109.80;;;60.55;;
52738;SDS011;52466;40.122;18.318;2022-09-03T12:42:37;110.55;;;60.58;;
52738;SDS011;52466;40.122;18.318;2022-09-03T12:45:46;111.30;;;60.38;;
52738;SDS011;52466;40.122;18.318;2022-09-03T12:48:58;112.13;;;60.35;;
52738;SDS011;52466;40.122;18.318;2022-09-03T12:55:44;110.35;;;60.22;;
52738;SDS011;52466;40.122;18.318;2022-09-03T12:58:56;110.57;;;60.25;;
52738;SDS011;52466;40.122;18.318;2022-09-03T13:02:12;112.32;;;60.30;;
52738;SDS011;52466;40.122;18.318;2022-09-03T13:05:39;111.78;;;60.10;;
52738;SDS011;52466;40.122;18.318;2022-09-03T13:09:01;111.32;;;60.15;;
52738;SDS011;52466;40.122;18.318;2022-09-03T13:12:22;111.55;;;60.28;;
52738;SDS011;52466;40.122;18.318;2022-09-03T13:15:35;111.80;;;61.05;;
52738;SDS011;52466;40.122;18.318;2022-09-03T13:25:54;112.03;;;60.25;;
52738;SDS011;52466;40.122;18.318;2022-09-03T13:29:29;109.30;;;60.20;;
52738;SDS011;52466;40.122;18.318;2022-09-03T13:32:54;112.35;;;60.92;;
52738;SDS011;52466;40.122;18.318;2022-09-03T13:36:50;110.80;;;60.28;;
52738;SDS011;52466;40.122;18.318;2022-09-03T13:46:52;110.18;;;60.10;;
52738;SDS011;52466;40.122;18.318;2022-09-03T13:50:06;113.10;;;60.47;;
52738;SDS011;52466;40.122;18.318;2022-09-03T13:53:31;111.82;;;60.92;;
52738;SDS011;52466;40.122;18.318;2022-09-03T13:57:01;110.30;;;60.38;;
52738;SDS011;52466;40.122;18.318;2022-09-03T14:00:21;110.78;;;61.10;;
52738;SDS011;52466;40.122;18.318;2022-09-03T14:03:51;110.10;;;60.45;;
52738;SDS011;52466;40.122;18.318;2022-09-03T14:07:07;110.60;;;60.25;;
52738;SDS011;52466;40.122;18.318;2022-09-03T14:17:35;110.43;;;59.97;;
52738;SDS011;52466;40.122;18.318;2022-09-03T14:21:32;111.07;;;60.40;;
52738;SDS011;52466;40.122;18.318;2022-09-03T14:27:53;112.18;;;60.42;;
52738;SDS011;52466;40.122;18.318;2022-09-03T14:31:06;111.28;;;60.50;;
52738;SDS011;52466;40.122;18.318;2022-09-03T14:41:48;113.28;;;60.75;;
52738;SDS011;52466;40.122;18.318;2022-09-03T14:48:34;110.40;;;60.20;;
52738;SDS011;52466;40.122;18.318;2022-09-03T14:55:03;112.07;;;59.97;;
52738;SDS011;52466;40.122;18.318;2022-09-03T15:01:50;112.07;;;60.15;;
52738;SDS011;52466;40.122;18.318;2022-09-03T15:05:15;111.00;;;59.80;;
52738;SDS011;52466;40.122;18.318;2022-09-03T15:16:08;112.95;;;59.47;;
52738;SDS011;52466;40.122;18.318;2022-09-03T15:29:35;111.57;;;60.50;;
52738;SDS011;52466;40.122;18.318;2022-09-03T15:36:53;110.82;;;60.33;;
52738;SDS011;52466;40.122;18.318;2022-09-03T15:40:08;110.47;;;59.75;;
52738;SDS011;52466;40.122;18.318;2022-09-03T15:43:21;109.20;;;59.75;;
52738;SDS011;52466;40.122;18.318;2022-09-03T15:46:52;110.57;;;59.35;;
52738;SDS011;52466;40.122;18.318;2022-09-03T15:50:06;109.85;;;59.28;;
52738;SDS011;52466;40.122;18.318;2022-09-03T16:00:26;109.55;;;59.00;;
52738;SDS011;52466;40.122;18.318;2022-09-03T16:24:47;109.43;;;59.17;;
52738;SDS011;52466;40.122;18.318;2022-09-03T16:28:04;108.57;;;59.53;;
52738;SDS011;52466;40.122;18.318;2022-09-03T16:31:34;110.05;;;59.22;;
52738;SDS011;52466;40.122;18.318;2022-09-03T16:45:12;107.15;;;59.03;;
52738;SDS011;52466;40.122;18.318;2022-09-03T17:10:04;109.78;;;59.08;;
52738;SDS011;52466;40.122;18.318;2022-09-03T17:27:33;105.93;;;58.63;;
52738;SDS011;52466;40.122;18.318;2022-09-03T17:34:13;106.90;;;58.67;;
52738;SDS011;52466;40.122;18.318;2022-09-03T17:54:42;110.68;;;61.28;;
52738;SDS011;52466;40.122;18.318;2022-09-03T17:58:30;113.72;;;60.58;;
52738;SDS011;52466;40.122;18.318;2022-09-03T18:01:35;111.78;;;59.78;;
52738;SDS011;52466;40.122;18.318;2022-09-03T18:04:56;109.85;;;59.65;;
52738;SDS011;52466;40.122;18.318;2022-09-03T18:09:11;111.35;;;59.78;;
52738;SDS011;52466;40.122;18.318;2022-09-03T18:15:17;114.38;;;59.55;;
52738;SDS011;52466;40.122;18.318;2022-09-03T18:18:32;108.50;;;59.88;;
52738;SDS011;52466;40.122;18.318;2022-09-03T18:21:43;108.35;;;58.92;;
52738;SDS011;52466;40.122;18.318;2022-09-03T18:25:14;105.70;;;59.13;;
52738;SDS011;52466;40.122;18.318;2022-09-03T18:28:45;106.50;;;59.00;;
52738;SDS011;52466;40.122;18.318;2022-09-03T18:32:18;109.60;;;59.40;;
52738;SDS011;52466;40.122;18.318;2022-09-03T18:57:58;110.72;;;59.90;;
52738;SDS011;52466;40.122;18.318;2022-09-03T19:01:33;106.85;;;59.30;;
52738;SDS011;52466;40.122;18.318;2022-09-03T19:05:12;109.13;;;59.83;;
52738;SDS011;52466;40.122;18.318;2022-09-03T19:20:32;108.43;;;59.00;;
52738;SDS011;52466;40.122;18.318;2022-09-03T19:24:01;119.35;;;62.15;;
52738;SDS011;52466;40.122;18.318;2022-09-03T19:28:05;114.78;;;61.63;;
52738;SDS011;52466;40.122;18.318;2022-09-03T19:34:56;111.68;;;61.65;;
52738;SDS011;52466;40.122;18.318;2022-09-03T19:46:17;109.45;;;59.63;;
52738;SDS011;52466;40.122;18.318;2022-09-03T19:53:46;110.20;;;62.40;;
52738;SDS011;52466;40.122;18.318;2022-09-03T19:57:14;123.90;;;72.18;;
52738;SDS011;52466;40.122;18.318;2022-09-03T20:04:09;112.35;;;60.72;;
52738;SDS011;52466;40.122;18.318;2022-09-03T20:07:38;109.13;;;59.47;;
52738;SDS011;52466;40.122;18.318;2022-09-03T20:11:04;105.95;;;59.70;;
52738;SDS011;52466;40.122;18.318;2022-09-03T20:14:15;105.13;;;59.78;;
52738;SDS011;52466;40.122;18.318;2022-09-03T20:17:37;106.43;;;59.15;;
52738;SDS011;52466;40.122;18.318;2022-09-03T20:25:05;105.78;;;59.58;;
52738;SDS011;52466;40.122;18.318;2022-09-03T20:28:27;105.90;;;59.35;;
52738;SDS011;52466;40.122;18.318;2022-09-03T20:42:07;105.75;;;58.83;;
52738;SDS011;52466;40.122;18.318;2022-09-03T20:45:57;106.35;;;58.85;;
52738;SDS011;52466;40.122;18.318;2022-09-03T20:56:26;105.93;;;59.95;;
52738;SDS011;52466;40.122;18.318;2022-09-03T21:03:26;106.75;;;58.90;;
52738;SDS011;52466;40.122;18.318;2022-09-03T21:06:43;150.82;;;88.45;;
52738;SDS011;52466;40.122;18.318;2022-09-03T21:13:39;107.50;;;59.53;;
52738;SDS011;52466;40.122;18.318;2022-09-03T21:17:21;104.50;;;59.10;;
52738;SDS011;52466;40.122;18.318;2022-09-03T21:20:45;104.72;;;60.50;;
52738;SDS011;52466;40.122;18.318;2022-09-03T21:24:19;105.28;;;59.28;;
52738;SDS011;52466;40.122;18.318;2022-09-03T21:27:45;104.85;;;59.80;;
52738;SDS011;52466;40.122;18.318;2022-09-03T21:30:58;116.20;;;67.65;;
52738;SDS011;52466;40.122;18.318;2022-09-03T21:34:07;131.38;;;76.32;;
52738;SDS011;52466;40.122;18.318;2022-09-03T21:37:18;163.98;;;100.35;;
52738;SDS011;52466;40.122;18.318;2022-09-03T21:40:28;190.80;;;119.90;;
52738;SDS011;52466;40.122;18.318;2022-09-03T21:43:56;141.55;;;85.80;;
52738;SDS011;52466;40.122;18.318;2022-09-03T21:47:19;145.32;;;88.60;;
52738;SDS011;52466;40.122;18.318;2022-09-03T21:50:40;129.02;;;75.88;;
52738;SDS011;52466;40.122;18.318;2022-09-03T21:54:02;120.80;;;71.70;;
52738;SDS011;52466;40.122;18.318;2022-09-03T21:57:18;116.03;;;69.72;;
52738;SDS011;52466;40.122;18.318;2022-09-03T22:00:40;115.43;;;66.00;;
52738;SDS011;52466;40.122;18.318;2022-09-03T22:03:48;111.90;;;66.05;;
52738;SDS011;52466;40.122;18.318;2022-09-03T22:10:39;110.07;;;65.47;;
52738;SDS011;52466;40.122;18.318;2022-09-03T22:17:24;109.80;;;64.25;;
52738;SDS011;52466;40.122;18.318;2022-09-03T22:20:57;109.38;;;63.33;;
52738;SDS011;52466;40.122;18.318;2022-09-03T22:31:26;108.85;;;61.22;;
52738;SDS011;52466;40.122;18.318;2022-09-03T22:48:01;104.28;;;59.17;;
52738;SDS011;52466;40.122;18.318;2022-09-03T22:51:29;103.95;;;59.95;;
52738;SDS011;52466;40.122;18.318;2022-09-03T22:58:15;105.82;;;59.58;;
52738;SDS011;52466;40.122;18.318;2022-09-03T23:01:32;105.50;;;59.45;;
52738;SDS011;52466;40.122;18.318;2022-09-03T23:05:06;104.63;;;60.00;;
52738;SDS011;52466;40.122;18.318;2022-09-03T23:08:32;100.38;;;59.03;;
52738;SDS011;52466;40.122;18.318;2022-09-03T23:11:50;101.63;;;59.45;;
52738;SDS011;52466;40.122;18.318;2022-09-03T23:15:04;104.53;;;59.25;;
52738;SDS011;52466;40.122;18.318;2022-09-03T23:18:20;105.47;;;59.25;;
52738;SDS011;52466;40.122;18.318;2022-09-03T23:21:37;103.63;;;59.95;;
52738;SDS011;52466;40.122;18.318;2022-09-03T23:24:48;101.65;;;59.83;;
52738;SDS011;52466;40.122;18.318;2022-09-03T23:28:31;102.95;;;59.40;;
52738;SDS011;52466;40.122;18.318;2022-09-03T23:31:42;108.65;;;60.63;;
52738;SDS011;52466;40.122;18.318;2022-09-03T23:35:02;104.15;;;59.78;;
52738;SDS011;52466;40.122;18.318;2022-09-03T23:42:05;102.40;;;59.33;;
52738;SDS011;52466;40.122;18.318;2022-09-03T23:45:52;103.18;;;58.83;;
